Time;durP1;ratioP1;P1;durP2;ratioP2;P2;SDS_P1;SDS_P2;PMS_P1;PMS_P2;Temp;Humidity;BMP_temperature;BMP_pressure;BME280_temperature;BME280_humidity;BME280_pressure;Samples;Min_cycle;Max_cycle;Signal;HPM_P1;HPM_P2
2022/09/25 00:00:41;;;;;;;3.17;2.03;;;14.70;99.90;;;;;;4931639;29;20031;-86
2022/09/25 00:03:08;;;;;;;4.53;2.13;;;14.70;99.90;;;;;;4930722;29;20104;-87
2022/09/25 00:05:39;;;;;;;5.45;1.98;;;14.70;99.90;;;;;;4930626;29;20064;-87
2022/09/25 00:08:05;;;;;;;3.22;1.67;;;14.70;99.90;;;;;;4915284;29;20490;-87
2022/09/25 00:10:31;;;;;;;5.30;2.28;;;14.70;99.90;;;;;;4914384;29;20039;-87
2022/09/25 00:12:57;;;;;;;4.57;2.33;;;14.70;99.90;;;;;;4930689;29;20071;-86
2022/09/25 00:15:24;;;;;;;6.75;1.77;;;14.70;99.90;;;;;;4930393;29;20052;-87
2022/09/25 00:17:50;;;;;;;1.90;1.77;;;14.60;99.90;;;;;;4930274;29;20035;-87
2022/09/25 00:20:19;;;;;;;4.43;1.80;;;14.60;99.90;;;;;;4929357;29;20064;-86
2022/09/25 00:22:46;;;;;;;2.38;2.17;;;14.60;99.90;;;;;;4930249;29;20031;-87
2022/09/25 00:25:13;;;;;;;4.50;2.10;;;14.60;99.90;;;;;;4930084;29;20043;-86
2022/09/25 00:27:40;;;;;;;3.00;1.73;;;14.60;99.90;;;;;;4931244;29;20047;-87
2022/09/25 00:30:08;;;;;;;3.92;2.63;;;14.60;99.90;;;;;;4930401;29;20031;-87
2022/09/25 00:32:34;;;;;;;3.17;2.20;;;14.60;99.90;;;;;;4930194;29;20046;-87
2022/09/25 00:35:00;;;;;;;9.02;2.03;;;14.60;99.90;;;;;;4929681;29;20032;-87
2022/09/25 00:37:27;;;;;;;2.08;1.88;;;14.60;99.90;;;;;;4929928;29;20477;-87
2022/09/25 00:39:53;;;;;;;2.28;2.00;;;14.60;99.90;;;;;;4898192;29;20059;-86
2022/09/25 00:42:20;;;;;;;8.88;2.90;;;14.60;99.90;;;;;;4913794;29;20036;-87
2022/09/25 00:45:04;;;;;;;7.85;3.25;;;14.60;99.90;;;;;;4929717;29;20381;-86
2022/09/25 00:47:36;;;;;;;7.03;2.08;;;14.60;99.90;;;;;;4929533;29;20028;-87
2022/09/25 00:50:09;;;;;;;6.22;3.20;;;14.50;99.90;;;;;;4930995;29;20039;-87
2022/09/25 00:52:35;;;;;;;7.90;2.90;;;14.50;99.90;;;;;;4945313;29;20032;-87
2022/09/25 00:55:06;;;;;;;7.50;3.17;;;14.50;99.90;;;;;;4898110;29;20087;-87
2022/09/25 00:57:37;;;;;;;7.63;3.22;;;14.50;99.90;;;;;;4929219;29;20052;-87
2022/09/25 01:00:08;;;;;;;5.95;4.07;;;14.50;99.90;;;;;;4929320;29;20043;-86
2022/09/25 01:02:39;;;;;;;8.90;3.85;;;14.50;99.90;;;;;;4913782;29;20465;-87
2022/09/25 01:05:15;;;;;;;7.15;4.18;;;14.40;99.90;;;;;;4929219;29;20032;-87
2022/09/25 01:07:44;;;;;;;4.75;3.30;;;14.40;99.90;;;;;;4929281;29;20059;-87
2022/09/25 01:10:12;;;;;;;13.98;4.75;;;14.50;99.90;;;;;;4913351;29;20108;-86
2022/09/25 01:12:43;;;;;;;6.00;3.47;;;14.40;99.90;;;;;;4929226;29;20036;-87
2022/09/25 01:15:11;;;;;;;7.03;2.58;;;14.40;99.90;;;;;;4929001;29;20040;-87
2022/09/25 01:17:45;;;;;;;5.30;2.88;;;14.40;99.90;;;;;;4929231;29;20450;-87
2022/09/25 01:20:49;;;;;;;3.90;3.08;;;14.40;99.90;;;;;;4928803;29;20051;-87
2022/09/25 01:23:36;;;;;;;6.25;2.85;;;14.40;99.90;;;;;;4913685;29;20040;-87
2022/09/25 01:26:44;;;;;;;3.95;2.50;;;14.40;99.90;;;;;;4913103;29;20123;-86
2022/09/25 01:29:29;;;;;;;5.60;2.67;;;14.40;99.90;;;;;;4912828;29;20036;-87
2022/09/25 01:32:24;;;;;;;3.78;2.85;;;14.40;99.90;;;;;;4930041;29;20152;-86
2022/09/25 01:34:55;;;;;;;4.47;3.80;;;14.40;99.90;;;;;;4895750;29;20108;-86
2022/09/25 01:37:47;;;;;;;4.32;2.75;;;14.40;99.90;;;;;;4912807;29;20036;-86
2022/09/25 01:40:21;;;;;;;5.93;3.00;;;14.30;99.90;;;;;;4928583;29;20024;-87
2022/09/25 01:42:54;;;;;;;5.78;3.17;;;14.30;99.90;;;;;;4929874;29;20099;-86
2022/09/25 01:45:27;;;;;;;8.10;2.88;;;14.30;99.90;;;;;;4928384;29;20043;-86
2022/09/25 01:47:57;;;;;;;4.82;1.60;;;14.30;99.90;;;;;;4911780;29;20033;-86
2022/09/25 01:50:33;;;;;;;11.43;3.45;;;14.30;99.90;;;;;;4926064;29;20047;-86
2022/09/25 01:53:03;;;;;;;6.03;2.70;;;14.30;99.90;;;;;;4928744;29;20439;-86
2022/09/25 01:55:30;;;;;;;3.05;1.65;;;14.30;99.90;;;;;;4928742;29;20017;-87
2022/09/25 01:58:07;;;;;;;6.55;2.47;;;14.30;99.90;;;;;;4928939;29;20032;-86
2022/09/25 02:00:36;;;;;;;3.72;2.45;;;14.30;99.90;;;;;;4928864;29;20040;-86
2022/09/25 02:03:20;;;;;;;4.88;1.88;;;14.20;99.90;;;;;;4928808;29;20034;-86
2022/09/25 02:05:52;;;;;;;3.40;2.22;;;14.30;99.90;;;;;;4928257;29;20100;-86
2022/09/25 02:08:27;;;;;;;9.25;3.17;;;14.20;99.90;;;;;;4928622;29;20065;-86
2022/09/25 02:10:58;;;;;;;3.85;2.53;;;14.30;99.90;;;;;;4928761;29;20032;-86
2022/09/25 02:13:32;;;;;;;5.93;4.05;;;14.20;99.90;;;;;;4928679;29;20036;-86
2022/09/25 02:16:05;;;;;;;9.13;2.67;;;14.20;99.90;;;;;;4929671;29;20562;-87
2022/09/25 02:21:25;;;;;;;8.20;3.30;;;14.20;99.90;;;;;;4914873;29;20056;-86
2022/09/25 02:23:55;;;;;;;4.07;2.45;;;14.20;99.90;;;;;;4912658;29;20051;-86
2022/09/25 02:26:28;;;;;;;;;;;14.20;99.90;;;;;;4929029;29;20478;-87
2022/09/25 02:28:56;;;;;;;7.45;2.50;;;14.20;99.90;;;;;;4928127;29;19918;-86
2022/09/25 02:31:29;;;;;;;6.13;2.30;;;14.20;99.90;;;;;;4930871;29;20040;-86
2022/09/25 02:33:56;;;;;;;6.82;2.25;;;14.20;99.90;;;;;;4928252;29;20036;-87
2022/09/25 02:36:22;;;;;;;5.90;2.65;;;14.10;99.90;;;;;;4928580;29;20470;-87
2022/09/25 02:38:50;;;;;;;7.35;2.30;;;14.10;99.90;;;;;;4896892;29;20055;-86
2022/09/25 02:41:40;;;;;;;5.53;3.53;;;14.10;99.90;;;;;;4928784;29;20031;-87
2022/09/25 02:44:25;;;;;;;8.80;2.47;;;14.10;99.90;;;;;;4916303;29;20043;-86
2022/09/25 02:47:00;;;;;;;5.93;3.78;;;14.10;99.90;;;;;;4933315;29;20047;-86
2022/09/25 02:49:35;;;;;;;8.27;3.20;;;14.00;99.90;;;;;;4931963;29;20087;-86
2022/09/25 02:52:15;;;;;;;4.15;2.08;;;14.10;99.90;;;;;;4916190;29;20194;-86
2022/09/25 02:54:59;;;;;;;3.55;2.08;;;14.10;99.90;;;;;;4933462;29;20036;-87
2022/09/25 02:57:45;;;;;;;5.22;3.38;;;14.10;99.90;;;;;;4932278;29;20040;-86
2022/09/25 03:00:12;;;;;;;5.38;2.22;;;14.00;99.90;;;;;;4931786;29;20039;-87
2022/09/25 03:02:39;;;;;;;4.65;2.67;;;14.00;99.90;;;;;;4931710;29;20028;-86
2022/09/25 03:05:09;;;;;;;3.60;2.25;;;14.00;99.90;;;;;;4900140;29;20032;-85
2022/09/25 03:08:36;;;;;;;5.53;2.30;;;14.00;99.90;;;;;;4932840;29;20032;-86
2022/09/25 03:10:23;;;;;;;3.20;2.28;;;14.00;99.90;;;;;;4918717;29;20047;-86
2022/09/25 03:12:48;;;;;;;6.65;2.58;;;14.00;99.90;;;;;;4931504;29;20036;-86
2022/09/25 03:15:15;;;;;;;6.18;3.60;;;14.00;99.90;;;;;;4930971;29;20036;-86
2022/09/25 03:17:42;;;;;;;6.60;3.95;;;14.00;99.90;;;;;;4932667;29;20474;-86
2022/09/25 03:20:09;;;;;;;9.40;2.95;;;14.00;99.90;;;;;;4933714;29;20028;-86
2022/09/25 03:22:36;;;;;;;5.88;3.35;;;14.00;99.90;;;;;;4902138;29;20092;-86
2022/09/25 03:25:03;;;;;;;6.80;3.33;;;13.90;99.90;;;;;;4931150;29;20040;-87
2022/09/25 03:27:29;;;;;;;3.75;3.28;;;13.90;99.90;;;;;;4916147;29;20036;-86
2022/09/25 03:29:54;;;;;;;3.45;2.85;;;13.90;99.90;;;;;;4916002;29;20397;-86
2022/09/25 03:32:23;;;;;;;9.30;2.95;;;13.90;99.90;;;;;;4916786;29;20032;-86
2022/09/25 03:34:49;;;;;;;9.68;3.15;;;13.90;99.90;;;;;;4931707;29;20039;-86
2022/09/25 03:37:15;;;;;;;5.78;3.35;;;13.90;99.90;;;;;;4915478;29;20020;-86
2022/09/25 03:39:41;;;;;;;6.07;2.03;;;13.90;99.90;;;;;;4915626;29;20036;-87
2022/09/25 03:42:07;;;;;;;7.00;3.00;;;13.80;99.90;;;;;;4946825;29;20431;-86
2022/09/25 03:44:32;;;;;;;4.15;1.95;;;13.80;99.90;;;;;;4899237;29;20100;-86
2022/09/25 03:46:58;;;;;;;7.47;2.45;;;13.80;99.90;;;;;;4931750;29;20057;-86
2022/09/25 03:49:24;;;;;;;2.63;1.85;;;13.80;99.90;;;;;;4899638;29;20035;-86
2022/09/25 03:51:50;;;;;;;11.00;3.03;;;13.80;99.90;;;;;;4915097;29;20040;-86
2022/09/25 03:54:16;;;;;;;4.75;1.95;;;13.80;99.90;;;;;;4930989;29;20123;-87
2022/09/25 03:56:42;;;;;;;7.63;2.72;;;13.80;99.90;;;;;;4914933;29;20044;-87
2022/09/25 03:59:08;;;;;;;3.55;2.10;;;13.80;99.90;;;;;;4930591;29;20029;-87
2022/09/25 04:01:35;;;;;;;7.78;2.83;;;13.80;99.90;;;;;;4930191;29;20478;-86
2022/09/25 04:04:01;;;;;;;7.30;2.47;;;13.80;99.90;;;;;;4899257;29;20036;-85
2022/09/25 04:06:27;;;;;;;2.67;1.67;;;13.80;99.90;;;;;;4930583;29;20129;-87
2022/09/25 04:08:53;;;;;;;5.60;2.75;;;13.70;99.90;;;;;;4930299;29;20032;-86
2022/09/25 04:11:23;;;;;;;6.03;1.70;;;13.70;99.90;;;;;;4914686;29;20032;-86
2022/09/25 04:13:48;;;;;;;6.30;2.57;;;13.70;99.90;;;;;;4930126;29;20043;-86
2022/09/25 04:16:16;;;;;;;2.78;1.92;;;13.70;99.90;;;;;;4932615;29;20036;-86
2022/09/25 04:18:42;;;;;;;4.25;2.10;;;13.70;99.90;;;;;;4931798;29;20028;-87
2022/09/25 04:21:10;;;;;;;3.83;2.25;;;13.70;99.90;;;;;;4931398;29;20072;-86
2022/09/25 04:23:37;;;;;;;4.13;1.67;;;13.70;99.90;;;;;;4916075;29;20596;-86
2022/09/25 04:26:03;;;;;;;1.73;1.58;;;13.70;99.90;;;;;;4931218;29;20031;-86
2022/09/25 04:28:31;;;;;;;2.83;1.52;;;13.70;99.90;;;;;;4914957;29;20055;-87
2022/09/25 04:30:58;;;;;;;5.30;1.90;;;13.70;99.90;;;;;;4930871;29;20073;-86
2022/09/25 04:36:09;;;;;;;4.82;2.13;;;13.70;99.90;;;;;;4930711;29;20087;-86
2022/09/25 04:38:35;;;;;;;5.47;1.77;;;13.70;99.90;;;;;;4914376;29;20044;-86
2022/09/25 04:41:01;;;;;;;3.45;2.08;;;13.60;99.90;;;;;;4914374;29;20036;-86
2022/09/25 04:43:29;;;;;;;5.00;2.13;;;13.60;99.90;;;;;;4930253;29;20111;-86
2022/09/25 04:45:58;;;;;;;4.85;2.78;;;13.60;99.90;;;;;;4928713;29;20036;-86
2022/09/25 04:48:24;;;;;;;3.67;2.15;;;13.60;99.90;;;;;;4926546;29;20050;-86
2022/09/25 04:50:50;;;;;;;11.35;4.40;;;13.60;99.90;;;;;;4924973;29;20031;-86
2022/09/25 04:53:17;;;;;;;19.15;1.63;;;13.60;99.90;;;;;;4929239;29;20127;-86
2022/09/25 04:55:44;;;;;;;9.63;4.28;;;13.60;99.90;;;;;;4930828;29;20028;-86
2022/09/25 04:58:10;;;;;;;4.53;2.28;;;13.60;99.90;;;;;;4929251;29;20036;-86
2022/09/25 05:00:38;;;;;;;7.88;3.45;;;;;;;;;;4913341;29;20032;-86
2022/09/25 05:03:04;;;;;;;5.70;2.08;;;13.60;99.90;;;;;;4932778;29;20045;-86
2022/09/25 05:05:30;;;;;;;11.90;3.55;;;13.60;99.90;;;;;;4919498;29;20056;-86
2022/09/25 05:07:58;;;;;;;7.57;3.92;;;13.60;99.90;;;;;;4897922;29;20032;-86
2022/09/25 05:10:30;;;;;;;4.07;2.22;;;13.50;99.90;;;;;;4897889;29;20032;-86
2022/09/25 05:13:00;;;;;;;4.95;2.08;;;13.50;99.90;;;;;;4923590;29;20516;-85
2022/09/25 05:15:28;;;;;;;6.00;3.70;;;13.50;99.90;;;;;;4922496;29;20032;-85
2022/09/25 05:18:12;;;;;;;5.70;2.65;;;13.50;99.90;;;;;;4928925;29;20020;-85
2022/09/25 05:20:38;;;;;;;7.65;3.35;;;13.50;99.90;;;;;;4934068;29;20059;-85
2022/09/25 05:23:04;;;;;;;9.35;2.72;;;13.50;99.90;;;;;;4912863;29;20036;-85
2022/09/25 05:25:30;;;;;;;3.13;2.15;;;13.50;99.90;;;;;;4912925;29;20028;-85
2022/09/25 05:28:00;;;;;;;4.03;2.15;;;13.50;99.90;;;;;;4926940;29;20130;-85
2022/09/25 05:30:27;;;;;;;;;;;13.50;99.90;;;;;;4918098;29;20065;-84
2022/09/25 05:32:57;;;;;;;2.40;2.17;;;13.50;99.90;;;;;;4929948;29;19911;-84
2022/09/25 05:35:24;;;;;;;6.03;2.53;;;13.40;99.90;;;;;;4929575;29;20036;-85
2022/09/25 05:37:50;;;;;;;2.15;1.95;;;13.40;99.90;;;;;;4913414;29;20032;-86
2022/09/25 05:40:18;;;;;;;4.28;2.28;;;13.40;99.90;;;;;;4912662;29;20060;-86
2022/09/25 05:42:44;;;;;;;9.15;3.85;;;13.40;99.90;;;;;;4928325;29;20122;-86
2022/09/25 05:45:14;;;;;;;11.00;4.13;;;13.40;99.90;;;;;;4912717;29;20032;-86
2022/09/25 05:47:40;;;;;;;;;;;13.30;99.90;;;;;;4912769;29;20043;-87
2022/09/25 05:50:09;;;;;;;6.75;4.20;;;13.20;99.90;;;;;;4927628;29;19911;-87
2022/09/25 05:52:35;;;;;;;7.15;4.32;;;13.20;99.90;;;;;;4929600;29;20125;-86
2022/09/25 05:55:02;;;;;;;18.05;7.07;;;13.20;99.90;;;;;;4927824;29;20051;-86
2022/09/25 05:57:36;;;;;;;9.88;7.35;;;13.20;99.90;;;;;;4896726;29;20026;-86
2022/09/25 06:00:04;;;;;;;16.52;7.97;;;13.10;99.90;;;;;;4911892;29;20046;-86
2022/09/25 06:02:37;;;;;;;8.75;5.93;;;13.10;99.90;;;;;;4918226;29;20508;-87
2022/09/25 06:05:03;;;;;;;8.45;4.50;;;13.10;99.90;;;;;;4912150;29;20036;-86
2022/09/25 06:07:29;;;;;;;8.02;3.80;;;13.10;99.90;;;;;;4912287;29;20099;-87
2022/09/25 06:09:55;;;;;;;9.07;2.65;;;13.10;99.90;;;;;;4928426;29;20039;-86
2022/09/25 06:12:22;;;;;;;5.57;3.50;;;13.10;99.90;;;;;;4928069;29;20088;-87
2022/09/25 06:14:48;;;;;;;4.50;3.00;;;13.10;99.90;;;;;;4929578;29;20040;-86
2022/09/25 06:17:14;;;;;;;6.85;3.60;;;13.00;99.90;;;;;;4929040;29;20048;-87
2022/09/25 06:19:40;;;;;;;4.78;2.70;;;13.00;99.90;;;;;;4916182;29;20031;-87
2022/09/25 06:22:06;;;;;;;4.22;2.95;;;13.00;99.90;;;;;;4899248;29;20044;-85
2022/09/25 06:24:32;;;;;;;10.60;3.72;;;13.00;99.90;;;;;;4932026;29;20036;-86
2022/09/25 06:26:57;;;;;;;6.47;2.78;;;13.00;99.90;;;;;;4916403;29;20558;-85
2022/09/25 06:29:24;;;;;;;4.85;3.95;;;13.00;99.90;;;;;;4932104;29;20056;-85
2022/09/25 06:31:51;;;;;;;4.00;3.05;;;13.00;99.90;;;;;;4932491;29;20024;-85
2022/09/25 06:34:16;;;;;;;6.43;3.95;;;12.90;99.90;;;;;;4915903;29;20035;-85
2022/09/25 06:36:43;;;;;;;5.10;3.75;;;12.90;99.90;;;;;;4932055;29;20056;-85
2022/09/25 06:39:09;;;;;;;5.40;3.08;;;12.90;99.90;;;;;;4916032;29;20043;-85
2022/09/25 06:41:35;;;;;;;4.97;3.80;;;12.90;99.90;;;;;;4931784;29;20137;-86
2022/09/25 06:44:01;;;;;;;4.00;3.70;;;12.90;99.90;;;;;;4931949;29;20058;-85
2022/09/25 06:46:27;;;;;;;8.20;4.95;;;12.80;99.90;;;;;;4915858;29;20043;-86
2022/09/25 06:48:56;;;;;;;9.77;4.15;;;12.80;99.90;;;;;;4900307;29;20039;-85
2022/09/25 06:51:22;;;;;;;3.63;2.88;;;12.80;99.90;;;;;;4900459;29;20036;-86
2022/09/25 06:53:52;;;;;;;9.13;5.28;;;12.90;99.90;;;;;;4931442;29;20040;-85
2022/09/25 06:56:19;;;;;;;3.95;3.63;;;12.80;99.90;;;;;;4931399;29;20028;-85
2022/09/25 06:58:45;;;;;;;6.32;4.55;;;12.80;99.90;;;;;;4931619;29;20056;-85
2022/09/25 07:01:12;;;;;;;4.53;4.00;;;12.80;99.90;;;;;;4931288;29;20028;-85
2022/09/25 07:03:45;;;;;;;9.57;5.65;;;12.80;99.90;;;;;;4931310;29;20035;-86
2022/09/25 07:06:19;;;;;;;5.88;4.35;;;12.80;99.90;;;;;;4932673;29;20043;-85
2022/09/25 07:08:47;;;;;;;6.85;3.88;;;12.80;99.90;;;;;;4931395;29;20095;-85
2022/09/25 07:11:24;;;;;;;7.82;5.05;;;12.80;99.90;;;;;;4931176;29;20056;-85
2022/09/25 07:13:53;;;;;;;6.63;5.18;;;12.80;99.90;;;;;;4932326;29;20036;-86
2022/09/25 07:16:22;;;;;;;5.95;5.20;;;12.80;99.90;;;;;;4931181;29;20036;-85
2022/09/25 07:18:49;;;;;;;9.88;5.88;;;12.80;99.90;;;;;;4928419;29;20051;-85
2022/09/25 07:21:18;;;;;;;6.72;5.25;;;12.80;99.90;;;;;;4946670;29;20085;-86
2022/09/25 07:23:47;;;;;;;8.10;5.28;;;12.80;99.90;;;;;;4932227;29;20063;-86
2022/09/25 07:26:21;;;;;;;8.48;7.07;;;12.90;99.90;;;;;;4932337;29;20103;-86
2022/09/25 07:28:53;;;;;;;6.05;5.43;;;12.90;99.90;;;;;;4930791;29;20048;-85
2022/09/25 07:31:25;;;;;;;11.48;6.07;;;12.90;99.90;;;;;;4931268;29;20040;-85
2022/09/25 07:33:51;;;;;;;8.10;5.53;;;12.90;99.90;;;;;;4931696;29;20489;-85
2022/09/25 07:36:18;;;;;;;9.02;5.65;;;13.00;99.90;;;;;;4930826;29;20030;-86
2022/09/25 07:38:49;;;;;;;6.85;4.75;;;13.00;99.90;;;;;;4914922;29;20040;-85
2022/09/25 07:41:16;;;;;;;8.00;6.07;;;13.00;99.90;;;;;;4930765;29;20024;-85
2022/09/25 07:43:42;;;;;;;12.50;5.13;;;13.00;99.90;;;;;;4930696;29;20020;-85
2022/09/25 07:46:08;;;;;;;17.67;5.03;;;13.00;99.90;;;;;;4931582;29;20095;-85
2022/09/25 07:48:34;;;;;;;9.35;5.65;;;13.10;99.90;;;;;;4911554;29;20045;-85
2022/09/25 07:51:04;;;;;;;12.32;5.18;;;13.10;99.90;;;;;;4895917;29;20028;-85
2022/09/25 07:53:30;;;;;;;15.80;5.68;;;13.10;99.90;;;;;;4880960;29;20048;-86
2022/09/25 07:55:58;;;;;;;10.02;5.88;;;13.10;99.90;;;;;;4911101;29;20489;-85
2022/09/25 07:58:25;;;;;;;10.90;5.47;;;13.10;99.90;;;;;;4895965;29;20036;-86
2022/09/25 08:00:53;;;;;;;14.13;4.43;;;13.10;99.90;;;;;;4895742;29;20026;-85
2022/09/25 08:03:20;;;;;;;10.48;5.32;;;13.20;99.90;;;;;;4911291;29;20124;-86
2022/09/25 08:05:46;;;;;;;9.65;5.05;;;13.20;99.90;;;;;;4911016;29;20044;-85
2022/09/25 08:08:12;;;;;;;12.02;6.40;;;13.20;99.90;;;;;;4895693;29;20068;-85
2022/09/25 08:10:38;;;;;;;10.18;4.68;;;13.20;99.90;;;;;;4910770;29;20040;-86
2022/09/25 08:13:04;;;;;;;5.97;4.28;;;13.30;99.90;;;;;;4911039;29;20061;-85
2022/09/25 08:15:30;;;;;;;6.72;3.70;;;13.30;99.90;;;;;;4911197;29;20032;-85
2022/09/25 08:17:56;;;;;;;5.43;4.90;;;13.30;99.90;;;;;;4910968;29;20029;-86
2022/09/25 08:20:22;;;;;;;5.95;4.35;;;13.40;99.90;;;;;;4895312;29;20068;-85
2022/09/25 08:22:51;;;;;;;5.78;3.15;;;13.50;99.90;;;;;;4895197;29;20057;-85
2022/09/25 08:25:17;;;;;;;5.63;3.57;;;13.50;99.90;;;;;;4912163;29;20044;-85
2022/09/25 08:27:43;;;;;;;4.50;3.17;;;13.60;99.90;;;;;;4912183;29;20036;-85
2022/09/25 08:30:11;;;;;;;4.63;2.65;;;13.60;99.90;;;;;;4895240;29;20032;-85
2022/09/25 08:32:37;;;;;;;3.60;3.15;;;13.70;99.90;;;;;;4894907;29;20035;-85
2022/09/25 08:35:03;;;;;;;7.43;3.25;;;13.80;99.90;;;;;;4895016;29;20036;-85
2022/09/25 08:37:31;;;;;;;4.60;3.45;;;13.80;99.90;;;;;;4911440;29;20025;-85
2022/09/25 08:39:58;;;;;;;9.77;2.90;;;13.80;99.90;;;;;;4878968;29;20064;-85
2022/09/25 08:42:36;;;;;;;9.02;3.50;;;13.90;99.90;;;;;;4894985;29;20044;-86
2022/09/25 08:50:44;;;;;;;8.32;3.92;;;14.00;99.90;;;;;;4929324;29;20044;-85
2022/09/25 08:53:19;;;;;;;8.88;3.22;;;14.10;99.90;;;;;;4913430;29;20035;-86
2022/09/25 08:58:33;;;;;;;6.10;1.95;;;14.20;99.90;;;;;;4929118;29;20043;-86
2022/09/25 09:01:06;;;;;;;5.53;2.83;;;14.20;99.90;;;;;;4913255;29;20020;-85
2022/09/25 09:03:36;;;;;;;3.45;1.50;;;14.30;99.90;;;;;;4929325;29;20068;-86
2022/09/25 09:06:06;;;;;;;2.67;1.88;;;14.30;99.90;;;;;;4929291;29;20171;-86
2022/09/25 09:08:36;;;;;;;6.18;2.00;;;14.40;99.90;;;;;;4929153;29;20079;-86
2022/09/25 09:11:16;;;;;;;6.90;2.87;;;14.40;99.90;;;;;;4929168;29;20123;-85
2022/09/25 09:13:50;;;;;;;4.35;2.70;;;14.40;99.90;;;;;;4944829;29;20489;-86
2022/09/25 09:16:25;;;;;;;5.05;1.95;;;14.60;99.90;;;;;;4929015;29;20024;-86
2022/09/25 09:18:53;;;;;;;4.90;2.05;;;14.60;99.90;;;;;;4913341;29;20449;-85
2022/09/25 09:21:28;;;;;;;2.10;1.10;;;14.60;99.90;;;;;;4928506;29;20044;-86
2022/09/25 09:24:25;;;;;;;1.65;1.10;;;14.70;99.90;;;;;;4928966;29;20035;-86
2022/09/25 09:26:56;;;;;;;3.72;1.70;;;14.70;99.90;;;;;;4913101;29;20040;-86
2022/09/25 09:29:22;;;;;;;1.60;1.48;;;14.80;99.90;;;;;;4912964;29;20121;-86
2022/09/25 09:32:30;;;;;;;5.28;1.83;;;14.90;99.90;;;;;;4912968;29;20028;-86
2022/09/25 09:35:27;;;;;;;3.30;1.33;;;15.00;99.90;;;;;;4928637;29;20039;-86
2022/09/25 09:38:09;;;;;;;9.68;1.58;;;15.10;99.90;;;;;;4930022;29;20059;-87
2022/09/25 09:40:41;;;;;;;5.50;2.15;;;15.10;99.90;;;;;;4912686;29;20040;-86
2022/09/25 09:43:22;;;;;;;9.73;2.05;;;15.20;99.90;;;;;;4928577;29;20028;-86
2022/09/25 09:46:09;;;;;;;7.43;1.63;;;15.30;99.90;;;;;;4927774;29;20043;-87
2022/09/25 09:49:17;;;;;;;8.65;2.88;;;15.40;99.90;;;;;;4928872;29;20036;-87
2022/09/25 09:51:54;;;;;;;14.88;2.15;;;15.50;99.90;;;;;;4876428;29;20047;-87
2022/09/25 09:54:34;;;;;;;3.05;1.17;;;15.60;99.90;;;;;;4928332;29;20052;-87
2022/09/25 09:57:03;;;;;;;6.07;1.77;;;15.70;99.90;;;;;;4911563;29;20074;-87
2022/09/25 09:59:41;;;;;;;3.70;1.50;;;15.80;99.90;;;;;;4927790;29;20029;-87
2022/09/25 10:02:32;;;;;;;7.70;1.42;;;15.80;99.90;;;;;;4911852;29;20035;-88
2022/09/25 10:05:02;;;;;;;8.32;1.88;;;15.90;99.90;;;;;;4927601;29;20042;-87
2022/09/25 10:07:30;;;;;;;0.88;0.50;;;15.80;99.90;;;;;;4927482;29;20055;-86
2022/09/25 10:09:57;;;;;;;6.20;1.63;;;15.80;99.90;;;;;;4926051;29;20468;-87
2022/09/25 10:12:31;;;;;;;13.88;2.63;;;15.80;99.90;;;;;;4928508;29;20047;-87
2022/09/25 10:15:03;;;;;;;2.25;0.98;;;15.80;99.90;;;;;;4927919;29;20040;-87
2022/09/25 10:17:30;;;;;;;2.20;0.75;;;16.00;99.90;;;;;;4927365;29;20029;-87
2022/09/25 10:20:02;;;;;;;4.70;0.85;;;16.10;99.90;;;;;;4911179;29;20035;-87
2022/09/25 10:22:39;;;;;;;2.65;0.60;;;16.20;99.90;;;;;;4917068;29;20451;-88
2022/09/25 10:25:05;;;;;;;1.45;0.73;;;16.20;99.90;;;;;;4927848;29;20039;-87
2022/09/25 10:27:39;;;;;;;14.85;1.33;;;16.30;99.90;;;;;;4927804;29;20046;-87
2022/09/25 10:30:06;;;;;;;1.38;1.02;;;16.20;99.90;;;;;;4928093;29;20032;-87
2022/09/25 10:32:41;;;;;;;4.68;1.45;;;16.00;99.90;;;;;;4927835;29;20047;-87
2022/09/25 10:35:20;;;;;;;4.43;1.73;;;15.80;99.90;;;;;;4912381;29;20060;-87
2022/09/25 10:37:51;;;;;;;2.25;1.15;;;15.80;99.90;;;;;;4912289;29;20024;-88
2022/09/25 10:40:28;;;;;;;6.03;1.33;;;15.80;99.90;;;;;;4912339;29;20043;-87
2022/09/25 10:43:12;;;;;;;0.73;0.63;;;15.90;99.90;;;;;;4912151;29;20064;-87
2022/09/25 10:45:39;;;;;;;0.98;0.90;;;16.00;99.90;;;;;;4928047;29;20028;-87
2022/09/25 10:51:16;;;;;;;4.53;1.50;;;16.00;99.90;;;;;;4931236;29;20051;-87
2022/09/25 10:53:44;;;;;;;0.55;0.55;;;16.00;99.90;;;;;;4888143;29;20032;-87
2022/09/25 10:56:28;;;;;;;2.40;0.60;;;16.10;99.90;;;;;;4910692;29;20036;-88
2022/09/25 10:59:00;;;;;;;2.67;1.83;;;16.20;99.90;;;;;;4935562;29;20028;-88
2022/09/25 11:01:36;;;;;;;3.00;0.50;;;16.30;99.90;;;;;;4926451;29;20039;-87
2022/09/25 11:04:27;;;;;;;1.67;1.58;;;16.30;99.90;;;;;;4911836;29;20041;-87
2022/09/25 11:07:00;;;;;;;5.88;1.00;;;16.40;99.90;;;;;;4931386;29;20028;-87
2022/09/25 11:09:29;;;;;;;18.25;4.85;;;16.40;99.90;;;;;;4931032;29;20067;-88
2022/09/25 11:12:17;;;;;;;26.08;3.53;;;16.40;99.90;;;;;;4916836;29;20048;-87
2022/09/25 11:14:55;;;;;;;29.50;5.63;;;16.40;99.90;;;;;;4931057;29;20043;-88
2022/09/25 11:17:38;;;;;;;25.88;4.28;;;16.30;99.90;;;;;;4915403;29;20091;-87
2022/09/25 11:20:15;;;;;;;16.05;3.25;;;16.20;99.90;;;;;;4930613;29;20043;-88
2022/09/25 11:23:05;;;;;;;13.90;2.42;;;16.20;99.90;;;;;;4931257;29;20043;-88
2022/09/25 11:25:45;;;;;;;7.28;1.85;;;16.30;99.90;;;;;;4924213;29;20459;-88
2022/09/25 11:28:18;;;;;;;9.98;3.25;;;16.30;99.90;;;;;;4917884;29;20051;-88
2022/09/25 11:31:01;;;;;;;7.85;2.85;;;16.30;99.90;;;;;;4898524;29;20033;-88
2022/09/25 11:34:02;;;;;;;9.00;1.92;;;16.30;99.90;;;;;;4926365;29;20095;-88
2022/09/25 11:36:34;;;;;;;9.13;2.65;;;16.40;99.90;;;;;;4923483;29;20052;-88
2022/09/25 11:42:07;;;;;;;1.40;0.73;;;16.30;99.90;;;;;;4932010;29;20031;-87
2022/09/25 11:44:56;;;;;;;9.02;1.45;;;16.10;99.90;;;;;;4930518;29;20107;-87
2022/09/25 11:47:32;;;;;;;3.93;1.43;;;16.10;99.90;;;;;;4930590;29;20104;-88
2022/09/25 11:50:00;;;;;;;5.57;1.70;;;16.10;99.90;;;;;;4901438;29;20024;-87
2022/09/25 11:52:39;;;;;;;4.40;1.80;;;16.10;99.90;;;;;;4930178;29;20047;-87
2022/09/25 11:55:22;;;;;;;0.57;0.52;;;16.20;99.90;;;;;;4945660;29;20040;-86
2022/09/25 11:58:27;;;;;;;1.17;0.93;;;16.20;99.90;;;;;;4931545;29;20055;-85
2022/09/25 12:01:11;;;;;;;31.95;3.80;;;16.30;99.90;;;;;;4918469;29;20044;-88
2022/09/25 12:04:06;;;;;;;22.40;5.78;;;16.40;99.90;;;;;;4929787;29;20055;-88
2022/09/25 12:07:01;;;;;;;42.67;8.10;;;16.30;99.90;;;;;;4930390;29;20082;-88
2022/09/25 12:09:45;;;;;;;59.97;9.52;;;16.30;99.90;;;;;;4930054;29;20032;-88
2022/09/25 12:12:31;;;;;;;51.03;8.00;;;16.20;99.90;;;;;;4911305;29;20081;-88
2022/09/25 12:14:59;;;;;;;28.85;6.88;;;16.10;99.90;;;;;;4910262;29;20037;-87
2022/09/25 12:17:34;;;;;;;29.67;6.65;;;16.10;99.90;;;;;;4912371;29;20130;-87
2022/09/25 12:20:19;;;;;;;25.23;4.85;;;16.10;99.90;;;;;;4915037;29;20028;-87
2022/09/25 12:23:13;;;;;;;18.60;3.85;;;16.00;99.90;;;;;;4929987;29;20470;-88
2022/09/25 12:25:59;;;;;;;13.90;3.63;;;16.00;99.90;;;;;;4930383;29;20040;-87
2022/09/25 12:28:30;;;;;;;8.70;3.05;;;16.00;99.90;;;;;;4930104;29;20036;-87
2022/09/25 12:31:09;;;;;;;14.60;4.25;;;16.00;99.90;;;;;;4930171;29;20118;-86
2022/09/25 12:33:51;;;;;;;12.93;2.50;;;16.00;99.90;;;;;;4929695;29;20038;-86
2022/09/25 12:36:35;;;;;;;16.50;2.45;;;16.00;99.90;;;;;;4929751;29;20036;-85
2022/09/25 12:39:23;;;;;;;6.82;3.22;;;16.10;99.90;;;;;;4930984;29;20032;-86
2022/09/25 12:42:09;;;;;;;5.40;1.77;;;16.10;99.90;;;;;;4929689;29;20486;-86
2022/09/25 12:44:43;;;;;;;6.15;1.35;;;16.00;99.90;;;;;;4913771;29;20146;-86
2022/09/25 12:47:19;;;;;;;5.95;2.13;;;16.20;99.90;;;;;;4929554;29;20036;-85
2022/09/25 12:49:55;;;;;;;6.65;2.15;;;16.30;99.90;;;;;;4929616;29;20068;-86
2022/09/25 12:52:28;;;;;;;1.27;0.90;;;16.40;99.90;;;;;;4930899;29;20056;-86
2022/09/25 12:55:01;;;;;;;5.90;1.63;;;16.50;99.90;;;;;;4929161;29;20068;-86
2022/09/25 12:57:37;;;;;;;3.55;1.05;;;16.40;99.90;;;;;;4929311;29;20059;-86
2022/09/25 13:00:18;;;;;;;4.65;1.75;;;16.40;99.90;;;;;;4930518;29;20032;-86
2022/09/25 13:03:10;;;;;;;1.80;1.60;;;16.40;99.90;;;;;;4930537;29;20060;-86
2022/09/25 13:05:58;;;;;;;2.75;0.77;;;16.50;99.90;;;;;;4929112;29;20047;-86
2022/09/25 13:08:36;;;;;;;3.83;0.88;;;16.60;99.90;;;;;;4929189;29;20032;-86
2022/09/25 13:11:14;;;;;;;1.55;0.45;;;16.70;99.90;;;;;;4929277;29;20040;-86
2022/09/25 13:13:45;;;;;;;3.65;0.80;;;16.80;99.90;;;;;;4929038;29;20039;-86
2022/09/25 13:16:14;;;;;;;3.33;1.00;;;16.80;99.90;;;;;;4929241;29;20043;-86
2022/09/25 13:18:47;;;;;;;1.00;0.82;;;16.60;99.90;;;;;;4930233;29;20039;-85
2022/09/25 13:21:46;;;;;;;1.75;0.95;;;16.60;99.90;;;;;;4928832;29;20107;-86
2022/09/25 13:24:14;;;;;;;3.60;1.05;;;16.60;99.90;;;;;;4876984;29;20139;-86
2022/09/25 13:26:52;;;;;;;3.85;1.48;;;16.50;99.90;;;;;;4912780;29;20026;-86
2022/09/25 13:29:30;;;;;;;3.67;1.20;;;16.60;99.90;;;;;;4929133;29;20469;-87
2022/09/25 13:32:06;;;;;;;4.97;0.95;;;16.50;99.90;;;;;;4928733;29;20472;-86